Florence, OR (97439)

2:10 PM PDT on March 27, 2017 (GMT -0700)
Primrose Lane | | Change Station

Elev 43 ft 43.98 °N, 124.10 °W | Updated 9 minutes ago

Overcast
Overcast
53.3 °F
Feels Like 53.3 °F
N
2.0
Wind Variable Wind from NNE
Gusts 2.0 mph

Today
High -- | Low -- °F
--% Chance of Precip.
Yesterday
High -- | Low -- °F
Precip. -- in
Pressure 30.32 in
Visibility 10.0 miles
Clouds Few 3400 ft
Scattered Clouds 3900 ft
Overcast 4700 ft
Dew Point 52 °F
Humidity 96%
Rainfall 0.09 in
Snow Depth Not available.
7:06 AM 7:37 PM
Waning Crescent, 0% visible
METAR KOTH 272055Z 26007KT 10SM FEW034 SCT039 OVC047 11/06 A3032 RMK AO1 52024
Pressure 30.32 in
Visibility 10.0 miles
Clouds Few 3400 ft
Scattered Clouds 3900 ft
Overcast 4700 ft
Dew Point 52 °F
Humidity 96%
Rainfall 0.09 in
Snow Depth Not available.
7:06 AM 7:37 PM
Waning Crescent, 0% visible
METAR KOTH 272055Z 26007KT 10SM FEW034 SCT039 OVC047 11/06 A3032 RMK AO1 52024

Get Severe Weather Alerts

Thanks for signing up!

Be on the lookout for a verification email in your inbox.

You'll start receiving the daily forecast at 8 AM.

×

10-Day Weather Forecast

Almanac

Astronomy

Mar. 27, 2017 Rise Set
Actual Time
Civil Twilight
Nautical Twilight
Astronomical Twilight
Moon
Length of Visible Light
Length of Day
Tomorrow will be .
, % of the Moon is Illuminated

Today's Extremes

State Highs State Lows

Community

WunderPhotos

Upload Photos

1,962,540 photos uploaded!

WunderBlog® & News

Nearby

Air Quality

  Air Quality AQ Index Pollutant
Not available.

Snow Depth

Station Depth Elevation

Earthquake Activity

City Distance Mag. Time & Date
Minimum magnitude displayed is 2.5.

Earthquake Activity

City Distance Mag. Time & Date
Minimum magnitude displayed is 2.5.

Coastal Water Temperatures

Place Temperature

Stations

Nearby Weather Stations

Station Location Temp. Windchill Dew Point Humidity Wind Precip. Elev Updated Type
                   

Watches & Warnings

There are currently no watches in effect.